sensor_id;sensor_type;location;lat;lon;timestamp;P1;durP1;ratioP1;P2;durP2;ratioP2
20729;SDS011;10526;50.850;12.928;2022-09-27T00:00:10;7.28;;;1.80;;
20729;SDS011;10526;50.850;12.928;2022-09-27T00:04:33;3.67;;;1.75;;
20729;SDS011;10526;50.850;12.928;2022-09-27T00:08:55;4.20;;;1.83;;
20729;SDS011;10526;50.850;12.928;2022-09-27T00:13:19;2.88;;;1.58;;
20729;SDS011;10526;50.850;12.928;2022-09-27T00:17:41;3.65;;;1.55;;
20729;SDS011;10526;50.850;12.928;2022-09-27T00:22:04;2.80;;;1.42;;
20729;SDS011;10526;50.850;12.928;2022-09-27T00:26:26;6.05;;;1.48;;
20729;SDS011;10526;50.850;12.928;2022-09-27T00:30:49;2.28;;;1.33;;
20729;SDS011;10526;50.850;12.928;2022-09-27T00:35:13;6.00;;;1.73;;
20729;SDS011;10526;50.850;12.928;2022-09-27T00:39:37;5.00;;;1.73;;
20729;SDS011;10526;50.850;12.928;2022-09-27T00:44:03;3.53;;;1.60;;
20729;SDS011;10526;50.850;12.928;2022-09-27T00:48:50;4.30;;;1.50;;
20729;SDS011;10526;50.850;12.928;2022-09-27T00:53:41;1.65;;;1.42;;
20729;SDS011;10526;50.850;12.928;2022-09-27T00:58:11;5.78;;;1.70;;
20729;SDS011;10526;50.850;12.928;2022-09-27T01:02:39;5.35;;;1.83;;
20729;SDS011;10526;50.850;12.928;2022-09-27T01:07:08;3.45;;;1.45;;
20729;SDS011;10526;50.850;12.928;2022-09-27T01:16:27;6.68;;;1.63;;
20729;SDS011;10526;50.850;12.928;2022-09-27T01:21:21;4.90;;;1.60;;
20729;SDS011;10526;50.850;12.928;2022-09-27T01:31:48;4.43;;;1.70;;
20729;SDS011;10526;50.850;12.928;2022-09-27T01:41:27;6.72;;;1.77;;
20729;SDS011;10526;50.850;12.928;2022-09-27T01:46:42;4.00;;;1.95;;
20729;SDS011;10526;50.850;12.928;2022-09-27T01:51:30;5.28;;;2.08;;
20729;SDS011;10526;50.850;12.928;2022-09-27T01:56:00;2.97;;;1.70;;
20729;SDS011;10526;50.850;12.928;2022-09-27T02:00:41;4.10;;;1.60;;
20729;SDS011;10526;50.850;12.928;2022-09-27T02:05:13;7.18;;;1.90;;
20729;SDS011;10526;50.850;12.928;2022-09-27T02:09:51;5.22;;;1.90;;
20729;SDS011;10526;50.850;12.928;2022-09-27T02:14:43;8.48;;;2.10;;
20729;SDS011;10526;50.850;12.928;2022-09-27T02:24:45;11.38;;;1.80;;
20729;SDS011;10526;50.850;12.928;2022-09-27T02:29:52;4.95;;;2.03;;
20729;SDS011;10526;50.850;12.928;2022-09-27T02:34:36;5.80;;;2.10;;
20729;SDS011;10526;50.850;12.928;2022-09-27T02:39:01;2.50;;;1.50;;
20729;SDS011;10526;50.850;12.928;2022-09-27T02:43:28;4.75;;;2.00;;
20729;SDS011;10526;50.850;12.928;2022-09-27T03:03:45;4.18;;;1.80;;
20729;SDS011;10526;50.850;12.928;2022-09-27T03:08:32;5.43;;;1.80;;
20729;SDS011;10526;50.850;12.928;2022-09-27T03:12:56;6.00;;;1.88;;
20729;SDS011;10526;50.850;12.928;2022-09-27T03:17:19;3.42;;;1.55;;
20729;SDS011;10526;50.850;12.928;2022-09-27T03:22:16;4.38;;;1.50;;
20729;SDS011;10526;50.850;12.928;2022-09-27T03:26:38;3.65;;;1.75;;
20729;SDS011;10526;50.850;12.928;2022-09-27T03:31:01;4.75;;;1.90;;
20729;SDS011;10526;50.850;12.928;2022-09-27T03:35:59;11.65;;;4.45;;
20729;SDS011;10526;50.850;12.928;2022-09-27T03:40:22;2.65;;;1.77;;
20729;SDS011;10526;50.850;12.928;2022-09-27T03:44:44;5.47;;;2.17;;
20729;SDS011;10526;50.850;12.928;2022-09-27T03:49:07;2.95;;;1.58;;
20729;SDS011;10526;50.850;12.928;2022-09-27T03:53:29;4.70;;;1.90;;
20729;SDS011;10526;50.850;12.928;2022-09-27T03:57:52;5.38;;;1.98;;
20729;SDS011;10526;50.850;12.928;2022-09-27T04:02:14;2.47;;;1.77;;
20729;SDS011;10526;50.850;12.928;2022-09-27T04:06:55;3.45;;;1.77;;
20729;SDS011;10526;50.850;12.928;2022-09-27T04:11:18;2.80;;;1.55;;
20729;SDS011;10526;50.850;12.928;2022-09-27T04:15:43;6.22;;;2.10;;
20729;SDS011;10526;50.850;12.928;2022-09-27T04:20:15;3.33;;;1.90;;
20729;SDS011;10526;50.850;12.928;2022-09-27T04:24:39;3.85;;;1.75;;
20729;SDS011;10526;50.850;12.928;2022-09-27T04:29:27;5.03;;;2.13;;
20729;SDS011;10526;50.850;12.928;2022-09-27T04:33:58;4.05;;;2.28;;
20729;SDS011;10526;50.850;12.928;2022-09-27T04:38:25;6.63;;;2.60;;
20729;SDS011;10526;50.850;12.928;2022-09-27T04:42:48;6.80;;;2.50;;
20729;SDS011;10526;50.850;12.928;2022-09-27T04:47:13;7.60;;;3.00;;
20729;SDS011;10526;50.850;12.928;2022-09-27T04:51:36;7.45;;;3.22;;
20729;SDS011;10526;50.850;12.928;2022-09-27T04:55:58;7.30;;;3.10;;
20729;SDS011;10526;50.850;12.928;2022-09-27T05:00:27;10.70;;;3.35;;
20729;SDS011;10526;50.850;12.928;2022-09-27T05:04:56;8.95;;;2.97;;
20729;SDS011;10526;50.850;12.928;2022-09-27T05:09:25;7.10;;;3.08;;
20729;SDS011;10526;50.850;12.928;2022-09-27T05:13:49;8.13;;;3.30;;
20729;SDS011;10526;50.850;12.928;2022-09-27T05:18:14;10.00;;;4.38;;
20729;SDS011;10526;50.850;12.928;2022-09-27T05:22:56;14.00;;;3.90;;
20729;SDS011;10526;50.850;12.928;2022-09-27T05:27:19;4.57;;;2.38;;
20729;SDS011;10526;50.850;12.928;2022-09-27T05:31:43;6.30;;;3.33;;
20729;SDS011;10526;50.850;12.928;2022-09-27T05:36:06;8.48;;;3.30;;
20729;SDS011;10526;50.850;12.928;2022-09-27T05:40:32;9.65;;;3.08;;
20729;SDS011;10526;50.850;12.928;2022-09-27T05:45:04;7.20;;;2.90;;
20729;SDS011;10526;50.850;12.928;2022-09-27T05:49:28;8.50;;;2.90;;
20729;SDS011;10526;50.850;12.928;2022-09-27T05:53:52;5.30;;;2.83;;
20729;SDS011;10526;50.850;12.928;2022-09-27T05:58:20;5.53;;;2.63;;
20729;SDS011;10526;50.850;12.928;2022-09-27T06:02:58;4.75;;;2.22;;
20729;SDS011;10526;50.850;12.928;2022-09-27T06:07:41;8.65;;;2.58;;
20729;SDS011;10526;50.850;12.928;2022-09-27T06:12:10;4.03;;;2.33;;
20729;SDS011;10526;50.850;12.928;2022-09-27T06:16:34;5.95;;;2.38;;
20729;SDS011;10526;50.850;12.928;2022-09-27T06:21:00;7.22;;;2.80;;
20729;SDS011;10526;50.850;12.928;2022-09-27T06:25:25;6.63;;;2.20;;
20729;SDS011;10526;50.850;12.928;2022-09-27T06:30:07;3.15;;;1.95;;
20729;SDS011;10526;50.850;12.928;2022-09-27T06:34:39;3.60;;;1.85;;
20729;SDS011;10526;50.850;12.928;2022-09-27T06:39:02;9.27;;;2.30;;
20729;SDS011;10526;50.850;12.928;2022-09-27T06:43:32;4.95;;;1.70;;
20729;SDS011;10526;50.850;12.928;2022-09-27T06:48:08;4.50;;;1.90;;
20729;SDS011;10526;50.850;12.928;2022-09-27T06:52:45;5.35;;;1.90;;
20729;SDS011;10526;50.850;12.928;2022-09-27T06:57:09;2.72;;;1.45;;
20729;SDS011;10526;50.850;12.928;2022-09-27T07:01:51;6.88;;;1.40;;
20729;SDS011;10526;50.850;12.928;2022-09-27T07:06:49;3.05;;;1.33;;
20729;SDS011;10526;50.850;12.928;2022-09-27T07:11:17;1.38;;;1.00;;
20729;SDS011;10526;50.850;12.928;2022-09-27T07:15:40;1.77;;;1.08;;
20729;SDS011;10526;50.850;12.928;2022-09-27T07:20:06;1.73;;;1.02;;
20729;SDS011;10526;50.850;12.928;2022-09-27T07:24:29;2.78;;;1.30;;
20729;SDS011;10526;50.850;12.928;2022-09-27T07:28:52;2.97;;;1.10;;
20729;SDS011;10526;50.850;12.928;2022-09-27T07:33:15;2.15;;;0.90;;
20729;SDS011;10526;50.850;12.928;2022-09-27T07:37:38;4.93;;;0.98;;
20729;SDS011;10526;50.850;12.928;2022-09-27T07:42:01;2.35;;;0.70;;
20729;SDS011;10526;50.850;12.928;2022-09-27T07:46:24;1.42;;;0.70;;
20729;SDS011;10526;50.850;12.928;2022-09-27T07:50:59;1.65;;;0.90;;
20729;SDS011;10526;50.850;12.928;2022-09-27T07:55:37;1.17;;;0.50;;
20729;SDS011;10526;50.850;12.928;2022-09-27T08:00:12;1.55;;;0.70;;
20729;SDS011;10526;50.850;12.928;2022-09-27T08:04:39;2.80;;;0.75;;
20729;SDS011;10526;50.850;12.928;2022-09-27T08:09:08;1.67;;;0.77;;
20729;SDS011;10526;50.850;12.928;2022-09-27T08:13:33;1.08;;;0.93;;
20729;SDS011;10526;50.850;12.928;2022-09-27T08:17:57;1.95;;;1.08;;
20729;SDS011;10526;50.850;12.928;2022-09-27T08:22:40;3.28;;;0.88;;
20729;SDS011;10526;50.850;12.928;2022-09-27T08:27:22;2.25;;;0.75;;
20729;SDS011;10526;50.850;12.928;2022-09-27T08:31:49;2.88;;;1.08;;
20729;SDS011;10526;50.850;12.928;2022-09-27T08:36:12;3.20;;;1.17;;
20729;SDS011;10526;50.850;12.928;2022-09-27T08:45:21;0.73;;;0.57;;
20729;SDS011;10526;50.850;12.928;2022-09-27T09:00:10;2.60;;;0.77;;
20729;SDS011;10526;50.850;12.928;2022-09-27T09:04:36;1.50;;;0.63;;
20729;SDS011;10526;50.850;12.928;2022-09-27T09:28:21;4.07;;;1.00;;
20729;SDS011;10526;50.850;12.928;2022-09-27T09:37:48;1.42;;;0.93;;
20729;SDS011;10526;50.850;12.928;2022-09-27T09:42:28;3.10;;;1.10;;
20729;SDS011;10526;50.850;12.928;2022-09-27T09:52:06;2.70;;;1.17;;
20729;SDS011;10526;50.850;12.928;2022-09-27T09:56:47;2.05;;;0.90;;
20729;SDS011;10526;50.850;12.928;2022-09-27T10:01:17;1.27;;;0.63;;
20729;SDS011;10526;50.850;12.928;2022-09-27T10:06:12;2.65;;;0.57;;
20729;SDS011;10526;50.850;12.928;2022-09-27T10:10:36;1.40;;;0.63;;
20729;SDS011;10526;50.850;12.928;2022-09-27T10:15:34;4.70;;;1.02;;
20729;SDS011;10526;50.850;12.928;2022-09-27T10:19:57;2.05;;;1.00;;
20729;SDS011;10526;50.850;12.928;2022-09-27T10:24:20;2.05;;;0.65;;
20729;SDS011;10526;50.850;12.928;2022-09-27T10:29:21;3.80;;;0.80;;
20729;SDS011;10526;50.850;12.928;2022-09-27T10:38:30;2.75;;;0.85;;
20729;SDS011;10526;50.850;12.928;2022-09-27T10:43:02;2.05;;;0.75;;
20729;SDS011;10526;50.850;12.928;2022-09-27T10:48:00;2.75;;;0.68;;
20729;SDS011;10526;50.850;12.928;2022-09-27T10:52:49;1.20;;;0.70;;
20729;SDS011;10526;50.850;12.928;2022-09-27T10:57:28;1.13;;;0.47;;
20729;SDS011;10526;50.850;12.928;2022-09-27T11:01:53;1.80;;;1.08;;
20729;SDS011;10526;50.850;12.928;2022-09-27T11:06:29;3.38;;;1.20;;
20729;SDS011;10526;50.850;12.928;2022-09-27T11:20:52;3.28;;;1.10;;
20729;SDS011;10526;50.850;12.928;2022-09-27T11:25:28;1.45;;;0.65;;
20729;SDS011;10526;50.850;12.928;2022-09-27T11:30:10;1.42;;;0.85;;
20729;SDS011;10526;50.850;12.928;2022-09-27T11:40:31;2.53;;;1.10;;
20729;SDS011;10526;50.850;12.928;2022-09-27T11:55:54;2.53;;;0.90;;
20729;SDS011;10526;50.850;12.928;2022-09-27T12:10:41;1.70;;;1.05;;
20729;SDS011;10526;50.850;12.928;2022-09-27T12:15:17;3.95;;;1.30;;
20729;SDS011;10526;50.850;12.928;2022-09-27T12:19:46;0.85;;;0.77;;
20729;SDS011;10526;50.850;12.928;2022-09-27T12:24:27;1.55;;;0.82;;
20729;SDS011;10526;50.850;12.928;2022-09-27T12:38:41;3.25;;;1.38;;
20729;SDS011;10526;50.850;12.928;2022-09-27T12:43:20;0.60;;;0.50;;
20729;SDS011;10526;50.850;12.928;2022-09-27T12:52:38;2.35;;;1.10;;
20729;SDS011;10526;50.850;12.928;2022-09-27T12:57:21;3.00;;;1.27;;
20729;SDS011;10526;50.850;12.928;2022-09-27T13:12:20;2.28;;;0.55;;
20729;SDS011;10526;50.850;12.928;2022-09-27T13:16:48;2.35;;;1.00;;
20729;SDS011;10526;50.850;12.928;2022-09-27T13:21:52;4.13;;;1.02;;
20729;SDS011;10526;50.850;12.928;2022-09-27T13:31:06;1.38;;;1.27;;
20729;SDS011;10526;50.850;12.928;2022-09-27T13:35:38;5.40;;;2.28;;
20729;SDS011;10526;50.850;12.928;2022-09-27T13:40:09;1.15;;;0.90;;
20729;SDS011;10526;50.850;12.928;2022-09-27T13:45:14;3.05;;;0.80;;
20729;SDS011;10526;50.850;12.928;2022-09-27T13:50:22;2.40;;;1.42;;
20729;SDS011;10526;50.850;12.928;2022-09-27T13:55:55;3.97;;;1.00;;
20729;SDS011;10526;50.850;12.928;2022-09-27T14:00:13;2.75;;;0.95;;
20729;SDS011;10526;50.850;12.928;2022-09-27T14:04:49;3.90;;;1.23;;
20729;SDS011;10526;50.850;12.928;2022-09-27T14:09:19;5.28;;;1.33;;
20729;SDS011;10526;50.850;12.928;2022-09-27T14:13:57;4.10;;;1.90;;
20729;SDS011;10526;50.850;12.928;2022-09-27T14:18:32;1.23;;;1.13;;
20729;SDS011;10526;50.850;12.928;2022-09-27T14:22:58;2.38;;;1.40;;
20729;SDS011;10526;50.850;12.928;2022-09-27T14:27:29;2.03;;;1.40;;
20729;SDS011;10526;50.850;12.928;2022-09-27T14:36:52;4.43;;;1.35;;
20729;SDS011;10526;50.850;12.928;2022-09-27T14:41:44;4.22;;;1.63;;
20729;SDS011;10526;50.850;12.928;2022-09-27T14:46:06;2.55;;;1.40;;
20729;SDS011;10526;50.850;12.928;2022-09-27T14:50:51;2.55;;;1.45;;
20729;SDS011;10526;50.850;12.928;2022-09-27T14:55:27;3.60;;;1.63;;
20729;SDS011;10526;50.850;12.928;2022-09-27T14:59:51;2.25;;;1.50;;
20729;SDS011;10526;50.850;12.928;2022-09-27T15:04:15;4.68;;;1.83;;
20729;SDS011;10526;50.850;12.928;2022-09-27T15:08:38;4.50;;;1.88;;
20729;SDS011;10526;50.850;12.928;2022-09-27T15:13:01;5.05;;;2.17;;
20729;SDS011;10526;50.850;12.928;2022-09-27T15:17:25;5.88;;;1.95;;
20729;SDS011;10526;50.850;12.928;2022-09-27T15:21:55;6.00;;;2.40;;
20729;SDS011;10526;50.850;12.928;2022-09-27T15:27:17;9.27;;;2.45;;
20729;SDS011;10526;50.850;12.928;2022-09-27T15:31:43;5.28;;;1.60;;
20729;SDS011;10526;50.850;12.928;2022-09-27T15:36:07;6.07;;;2.13;;
20729;SDS011;10526;50.850;12.928;2022-09-27T15:45:07;5.93;;;2.33;;
20729;SDS011;10526;50.850;12.928;2022-09-27T15:49:54;6.57;;;2.40;;
20729;SDS011;10526;50.850;12.928;2022-09-27T15:54:17;5.00;;;2.03;;
20729;SDS011;10526;50.850;12.928;2022-09-27T15:58:44;4.03;;;2.05;;
20729;SDS011;10526;50.850;12.928;2022-09-27T16:03:07;5.45;;;2.10;;
20729;SDS011;10526;50.850;12.928;2022-09-27T16:07:30;7.80;;;2.50;;
20729;SDS011;10526;50.850;12.928;2022-09-27T16:11:53;7.88;;;2.60;;
20729;SDS011;10526;50.850;12.928;2022-09-27T16:16:16;5.03;;;2.47;;
20729;SDS011;10526;50.850;12.928;2022-09-27T16:20:40;9.30;;;2.60;;
20729;SDS011;10526;50.850;12.928;2022-09-27T16:25:03;11.18;;;2.75;;
20729;SDS011;10526;50.850;12.928;2022-09-27T16:29:27;15.80;;;5.47;;
20729;SDS011;10526;50.850;12.928;2022-09-27T16:33:49;8.23;;;2.75;;
20729;SDS011;10526;50.850;12.928;2022-09-27T16:38:12;7.68;;;2.45;;
20729;SDS011;10526;50.850;12.928;2022-09-27T16:42:34;3.92;;;1.98;;
20729;SDS011;10526;50.850;12.928;2022-09-27T16:46:57;9.00;;;2.30;;
20729;SDS011;10526;50.850;12.928;2022-09-27T16:51:20;5.43;;;2.10;;
20729;SDS011;10526;50.850;12.928;2022-09-27T16:56:03;7.35;;;2.90;;
20729;SDS011;10526;50.850;12.928;2022-09-27T17:00:25;7.85;;;2.50;;
20729;SDS011;10526;50.850;12.928;2022-09-27T17:04:48;7.90;;;2.13;;
20729;SDS011;10526;50.850;12.928;2022-09-27T17:09:11;5.07;;;1.67;;
20729;SDS011;10526;50.850;12.928;2022-09-27T17:13:34;7.03;;;1.90;;
20729;SDS011;10526;50.850;12.928;2022-09-27T17:17:56;4.15;;;2.15;;
20729;SDS011;10526;50.850;12.928;2022-09-27T17:22:18;4.65;;;1.70;;
20729;SDS011;10526;50.850;12.928;2022-09-27T17:26:41;3.05;;;1.85;;
20729;SDS011;10526;50.850;12.928;2022-09-27T17:31:05;5.63;;;2.30;;
20729;SDS011;10526;50.850;12.928;2022-09-27T17:35:30;7.40;;;2.90;;
20729;SDS011;10526;50.850;12.928;2022-09-27T17:39:52;11.23;;;3.33;;
20729;SDS011;10526;50.850;12.928;2022-09-27T17:44:15;5.97;;;1.88;;
20729;SDS011;10526;50.850;12.928;2022-09-27T17:48:39;5.45;;;1.60;;
20729;SDS011;10526;50.850;12.928;2022-09-27T17:53:21;2.35;;;1.63;;
20729;SDS011;10526;50.850;12.928;2022-09-27T17:57:47;4.80;;;1.50;;
20729;SDS011;10526;50.850;12.928;2022-09-27T18:02:10;6.43;;;2.30;;
20729;SDS011;10526;50.850;12.928;2022-09-27T18:06:33;4.88;;;2.05;;
20729;SDS011;10526;50.850;12.928;2022-09-27T18:11:09;4.50;;;1.80;;
20729;SDS011;10526;50.850;12.928;2022-09-27T18:15:36;5.70;;;2.20;;
20729;SDS011;10526;50.850;12.928;2022-09-27T18:19:59;7.75;;;2.40;;
20729;SDS011;10526;50.850;12.928;2022-09-27T18:24:22;4.20;;;2.08;;
20729;SDS011;10526;50.850;12.928;2022-09-27T18:28:46;5.65;;;2.30;;
20729;SDS011;10526;50.850;12.928;2022-09-27T18:33:09;6.75;;;2.30;;
20729;SDS011;10526;50.850;12.928;2022-09-27T18:37:31;4.40;;;2.03;;
20729;SDS011;10526;50.850;12.928;2022-09-27T18:41:54;6.88;;;2.67;;
20729;SDS011;10526;50.850;12.928;2022-09-27T18:46:17;8.05;;;2.70;;
20729;SDS011;10526;50.850;12.928;2022-09-27T18:50:58;7.80;;;2.67;;
20729;SDS011;10526;50.850;12.928;2022-09-27T18:55:20;16.73;;;6.13;;
20729;SDS011;10526;50.850;12.928;2022-09-27T18:59:45;9.48;;;3.90;;
20729;SDS011;10526;50.850;12.928;2022-09-27T19:04:10;10.95;;;3.83;;
20729;SDS011;10526;50.850;12.928;2022-09-27T19:08:35;8.80;;;3.55;;
20729;SDS011;10526;50.850;12.928;2022-09-27T19:12:57;9.25;;;3.50;;
20729;SDS011;10526;50.850;12.928;2022-09-27T19:17:21;8.98;;;4.03;;
20729;SDS011;10526;50.850;12.928;2022-09-27T19:21:43;8.45;;;3.63;;
20729;SDS011;10526;50.850;12.928;2022-09-27T19:26:07;10.40;;;3.92;;
20729;SDS011;10526;50.850;12.928;2022-09-27T19:30:38;8.57;;;3.55;;
20729;SDS011;10526;50.850;12.928;2022-09-27T19:35:02;9.00;;;3.80;;
20729;SDS011;10526;50.850;12.928;2022-09-27T19:39:24;7.97;;;3.53;;
20729;SDS011;10526;50.850;12.928;2022-09-27T19:43:50;9.75;;;3.70;;
20729;SDS011;10526;50.850;12.928;2022-09-27T19:48:13;8.18;;;3.40;;
20729;SDS011;10526;50.850;12.928;2022-09-27T19:52:36;11.35;;;3.65;;
20729;SDS011;10526;50.850;12.928;2022-09-27T19:56:59;9.07;;;3.67;;
20729;SDS011;10526;50.850;12.928;2022-09-27T20:01:21;9.52;;;3.15;;
20729;SDS011;10526;50.850;12.928;2022-09-27T20:05:55;7.78;;;3.30;;
20729;SDS011;10526;50.850;12.928;2022-09-27T20:10:19;9.30;;;3.50;;
20729;SDS011;10526;50.850;12.928;2022-09-27T20:14:41;9.27;;;3.47;;
20729;SDS011;10526;50.850;12.928;2022-09-27T20:19:04;6.80;;;3.00;;
20729;SDS011;10526;50.850;12.928;2022-09-27T20:23:26;9.82;;;3.40;;
20729;SDS011;10526;50.850;12.928;2022-09-27T20:27:50;8.50;;;3.20;;
20729;SDS011;10526;50.850;12.928;2022-09-27T20:32:12;7.63;;;2.88;;
20729;SDS011;10526;50.850;12.928;2022-09-27T20:36:50;4.53;;;2.30;;
20729;SDS011;10526;50.850;12.928;2022-09-27T20:41:12;7.65;;;2.67;;
20729;SDS011;10526;50.850;12.928;2022-09-27T20:45:39;6.65;;;2.45;;
20729;SDS011;10526;50.850;12.928;2022-09-27T20:50:03;4.32;;;2.25;;
20729;SDS011;10526;50.850;12.928;2022-09-27T20:54:26;6.80;;;2.33;;
20729;SDS011;10526;50.850;12.928;2022-09-27T20:58:50;6.28;;;2.60;;
20729;SDS011;10526;50.850;12.928;2022-09-27T21:03:14;7.45;;;2.40;;
20729;SDS011;10526;50.850;12.928;2022-09-27T21:12:50;4.32;;;2.28;;
20729;SDS011;10526;50.850;12.928;2022-09-27T21:17:13;6.55;;;2.47;;
20729;SDS011;10526;50.850;12.928;2022-09-27T21:21:35;4.75;;;2.35;;
20729;SDS011;10526;50.850;12.928;2022-09-27T21:26:01;5.82;;;2.30;;
20729;SDS011;10526;50.850;12.928;2022-09-27T21:30:29;5.20;;;2.40;;
20729;SDS011;10526;50.850;12.928;2022-09-27T21:34:52;6.55;;;2.58;;
20729;SDS011;10526;50.850;12.928;2022-09-27T21:39:15;6.22;;;2.38;;
20729;SDS011;10526;50.850;12.928;2022-09-27T21:43:38;3.55;;;2.10;;
20729;SDS011;10526;50.850;12.928;2022-09-27T21:48:00;3.72;;;2.10;;
20729;SDS011;10526;50.850;12.928;2022-09-27T21:52:23;3.67;;;2.17;;
20729;SDS011;10526;50.850;12.928;2022-09-27T21:56:47;5.38;;;2.28;;
20729;SDS011;10526;50.850;12.928;2022-09-27T22:01:14;5.72;;;2.53;;
20729;SDS011;10526;50.850;12.928;2022-09-27T22:05:44;4.60;;;2.20;;
20729;SDS011;10526;50.850;12.928;2022-09-27T22:10:07;2.55;;;1.85;;
20729;SDS011;10526;50.850;12.928;2022-09-27T22:14:30;4.22;;;1.90;;
20729;SDS011;10526;50.850;12.928;2022-09-27T22:18:55;3.47;;;1.77;;
20729;SDS011;10526;50.850;12.928;2022-09-27T22:23:18;3.83;;;1.75;;
20729;SDS011;10526;50.850;12.928;2022-09-27T22:27:41;3.50;;;1.67;;
20729;SDS011;10526;50.850;12.928;2022-09-27T22:32:03;3.35;;;2.08;;
20729;SDS011;10526;50.850;12.928;2022-09-27T22:36:25;3.33;;;1.90;;
20729;SDS011;10526;50.850;12.928;2022-09-27T22:40:52;4.00;;;1.83;;
20729;SDS011;10526;50.850;12.928;2022-09-27T22:45:17;3.95;;;1.60;;
20729;SDS011;10526;50.850;12.928;2022-09-27T22:49:39;3.10;;;1.63;;
20729;SDS011;10526;50.850;12.928;2022-09-27T22:54:01;1.95;;;1.52;;
20729;SDS011;10526;50.850;12.928;2022-09-27T22:58:24;2.30;;;1.38;;
20729;SDS011;10526;50.850;12.928;2022-09-27T23:02:46;5.72;;;1.80;;
20729;SDS011;10526;50.850;12.928;2022-09-27T23:07:13;4.82;;;1.80;;
20729;SDS011;10526;50.850;12.928;2022-09-27T23:11:36;5.10;;;1.67;;
20729;SDS011;10526;50.850;12.928;2022-09-27T23:16:02;2.95;;;1.60;;
20729;SDS011;10526;50.850;12.928;2022-09-27T23:20:27;4.35;;;1.73;;
20729;SDS011;10526;50.850;12.928;2022-09-27T23:24:50;2.15;;;1.70;;
20729;SDS011;10526;50.850;12.928;2022-09-27T23:29:12;1.85;;;1.50;;
20729;SDS011;10526;50.850;12.928;2022-09-27T23:33:35;2.75;;;1.40;;
20729;SDS011;10526;50.850;12.928;2022-09-27T23:37:58;4.47;;;1.90;;
20729;SDS011;10526;50.850;12.928;2022-09-27T23:42:21;4.50;;;1.92;;
20729;SDS011;10526;50.850;12.928;2022-09-27T23:46:44;4.07;;;1.77;;
20729;SDS011;10526;50.850;12.928;2022-09-27T23:51:07;3.60;;;1.83;;
20729;SDS011;10526;50.850;12.928;2022-09-27T23:55:31;4.30;;;2.08;;
20729;SDS011;10526;50.850;12.928;2022-09-27T23:59:53;3.88;;;2.15;;
